createdAt,value
2024-02-19T00:00:36.914Z,45.9
2024-02-19T00:05:55.053Z,44.6
2024-02-19T00:11:13.493Z,45.5
2024-02-19T00:16:31.848Z,45.2
2024-02-19T00:21:50.378Z,44.8
2024-02-19T00:27:08.965Z,45.3
2024-02-19T00:32:27.715Z,44.8
2024-02-19T00:37:45.694Z,45.1
2024-02-19T00:43:03.859Z,45.4
2024-02-19T00:48:22.498Z,44.8
2024-02-19T00:53:41.153Z,45.2
2024-02-19T00:58:59.657Z,45.8
2024-02-19T01:04:18.123Z,45.4
2024-02-19T01:09:36.816Z,45.2
2024-02-19T01:14:55.198Z,44.9
2024-02-19T01:20:13.701Z,45.9
2024-02-19T01:25:31.878Z,45.2
2024-02-19T01:30:50.292Z,45.2
2024-02-19T01:36:08.449Z,45.2
2024-02-19T01:41:26.822Z,45.1
2024-02-19T01:46:44.990Z,45.8
2024-02-19T01:52:03.356Z,45.4
2024-02-19T01:57:21.705Z,45.7
2024-02-19T02:02:40.068Z,45.2
2024-02-19T02:07:58.234Z,45.8
2024-02-19T02:13:16.453Z,46.2
2024-02-19T02:18:34.859Z,46.2
2024-02-19T02:23:53.230Z,46
2024-02-19T02:29:11.791Z,45.2
2024-02-19T02:34:30.539Z,45.8
2024-02-19T02:39:48.750Z,44.8
2024-02-19T02:45:06.931Z,45.8
2024-02-19T02:50:24.900Z,45.6
2024-02-19T02:55:43.213Z,45.9
2024-02-19T03:01:01.386Z,45.4
2024-02-19T03:06:25.303Z,45.1
2024-02-19T03:11:43.258Z,45.8
2024-02-19T03:17:01.635Z,45.1
2024-02-19T03:22:20.257Z,45.4
2024-02-19T03:27:38.873Z,45.9
2024-02-19T03:32:57.483Z,45.4
2024-02-19T03:38:15.580Z,45.2
2024-02-19T03:43:33.926Z,44.6
2024-02-19T03:48:52.557Z,45.2
2024-02-19T03:54:15.013Z,45.2
2024-02-19T03:59:33.178Z,45.1
2024-02-19T04:04:51.324Z,45.3
2024-02-19T04:10:09.543Z,44.9
2024-02-19T04:15:28.261Z,45.3
2024-02-19T04:20:46.594Z,45.9
2024-02-19T04:26:04.887Z,46
2024-02-19T04:31:23.599Z,45.8
2024-02-19T04:36:26.343Z,45.8
2024-02-19T04:41:44.660Z,45.7
2024-02-19T04:47:02.997Z,45.8
2024-02-19T04:52:21.214Z,45.6
2024-02-19T04:57:39.421Z,45.6
2024-02-19T05:02:57.609Z,44.9
2024-02-19T05:08:15.950Z,45.3
2024-02-19T05:13:34.264Z,45.3
2024-02-19T05:18:53.077Z,44.6
2024-02-19T05:24:11.440Z,44.4
2024-02-19T05:29:29.984Z,44.5
2024-02-19T05:34:48.607Z,45.2
2024-02-19T05:40:06.968Z,44.4
2024-02-19T05:45:25.265Z,44.3
2024-02-19T05:50:43.246Z,44.4
2024-02-19T05:56:01.743Z,44.1
2024-02-19T06:01:20.337Z,44.4
2024-02-19T06:06:38.866Z,44.2
2024-02-19T06:11:57.238Z,44.2
2024-02-19T06:17:15.739Z,43.7
2024-02-19T06:22:33.963Z,44.5
2024-02-19T06:27:36.513Z,44.4
2024-02-19T06:32:54.881Z,43.6
2024-02-19T06:38:13.003Z,43.7
2024-02-19T06:43:31.369Z,44.2
2024-02-19T06:48:51.498Z,43.9
2024-02-19T06:54:10.099Z,44.2
2024-02-19T06:59:28.301Z,44.1
2024-02-19T07:04:47.281Z,44.2
2024-02-19T07:10:06.157Z,43.2
2024-02-19T07:15:24.456Z,43.8
2024-02-19T07:20:42.683Z,43.4
2024-02-19T07:26:00.917Z,44.2
2024-02-19T07:31:19.774Z,43.4
2024-02-19T07:36:38.182Z,44.1
2024-02-19T07:41:56.646Z,43.6
2024-02-19T07:47:14.787Z,43.3
2024-02-19T07:52:33.186Z,43.3
2024-02-19T07:57:51.656Z,43
2024-02-19T08:03:10.125Z,44.2
2024-02-19T08:08:28.324Z,43.2
2024-02-19T08:13:47.337Z,44
2024-02-19T08:19:06.024Z,43.7
2024-02-19T08:24:23.993Z,43.2
2024-02-19T08:29:42.113Z,43.2
2024-02-19T08:35:00.857Z,43.1
2024-02-19T08:40:19.575Z,43.3
2024-02-19T08:45:38.472Z,43.5
2024-02-19T08:50:56.701Z,43.8
2024-02-19T08:56:15.036Z,43
2024-02-19T09:01:33.655Z,43.1
2024-02-19T09:06:55.521Z,43.1
2024-02-19T09:12:13.659Z,43.8
2024-02-19T09:17:31.970Z,43.4
2024-02-19T09:22:49.973Z,43.9
2024-02-19T09:28:07.980Z,43
2024-02-19T09:33:26.594Z,43.1
2024-02-19T09:38:44.856Z,43.1
2024-02-19T09:44:03.000Z,43.9
2024-02-19T09:49:21.204Z,43.9
2024-02-19T09:54:39.827Z,43
2024-02-19T09:59:58.155Z,43
2024-02-19T10:05:17.246Z,43.3
2024-02-19T10:10:35.660Z,43.8
2024-02-19T10:15:54.321Z,42.9
2024-02-19T10:21:12.268Z,42.9
2024-02-19T10:26:30.404Z,43.4
2024-02-19T10:31:48.650Z,42.9
2024-02-19T10:37:06.800Z,43
2024-02-19T10:42:25.412Z,43.2
2024-02-19T10:47:43.476Z,43.6
2024-02-19T10:53:01.822Z,43.7
2024-02-19T10:58:20.563Z,42.8
2024-02-19T11:03:38.942Z,43.7
2024-02-19T11:08:56.932Z,42.7
2024-02-19T11:14:15.480Z,42.8
2024-02-19T11:19:33.857Z,42.9
2024-02-19T11:24:52.350Z,43.4
2024-02-19T11:30:10.824Z,42.7
2024-02-19T11:35:31.549Z,43.5
2024-02-19T11:40:51.849Z,42.6
2024-02-19T11:46:10.113Z,42.8
2024-02-19T11:51:28.309Z,42.7
2024-02-19T11:56:46.842Z,43
2024-02-19T12:02:07.022Z,42.6
2024-02-19T12:07:26.589Z,43.5
2024-02-19T12:12:45.222Z,42.8
2024-02-19T12:18:03.800Z,43.5
2024-02-19T12:23:21.996Z,42.8
2024-02-19T12:28:39.917Z,43.5
2024-02-19T12:33:58.849Z,42.7
2024-02-19T12:39:17.150Z,42.7
2024-02-19T12:44:35.133Z,43.2
2024-02-19T12:49:53.992Z,43.3
2024-02-19T12:55:19.275Z,42.4
2024-02-19T13:00:38.260Z,42.6
2024-02-19T13:05:56.914Z,42.3
2024-02-19T13:11:15.375Z,42.1
2024-02-19T13:16:33.802Z,42.9
2024-02-19T13:21:52.189Z,42
2024-02-19T13:27:10.708Z,41.9
2024-02-19T13:32:28.900Z,42.7
2024-02-19T13:37:47.273Z,42.6
2024-02-19T13:43:06.606Z,42
2024-02-19T13:48:25.152Z,42.2
2024-02-19T13:53:43.583Z,42.5
2024-02-19T13:59:01.933Z,41.9
2024-02-19T14:04:20.525Z,42.3
2024-02-19T14:09:38.982Z,41.6
2024-02-19T14:14:57.334Z,42.3
2024-02-19T14:20:16.466Z,42.2
2024-02-19T14:25:35.644Z,42.4
2024-02-19T14:30:56.918Z,36.2
2024-02-19T14:36:15.513Z,33.7
2024-02-19T14:41:33.517Z,33.8
2024-02-19T14:47:07.610Z,36.1
2024-02-19T14:52:26.501Z,36.6
2024-02-19T14:57:45.244Z,38.2
2024-02-19T15:03:03.710Z,37.9
2024-02-19T15:08:22.603Z,38.5
2024-02-19T15:13:41.328Z,39.5
2024-02-19T15:19:00.674Z,39.2
2024-02-19T15:24:18.646Z,39.7
2024-02-19T15:29:36.597Z,40
2024-02-19T15:34:55.271Z,39.4
2024-02-19T15:40:13.918Z,40.3
2024-02-19T15:45:32.389Z,40.4
2024-02-19T15:50:50.784Z,40.3
2024-02-19T15:56:08.758Z,39.9
2024-02-19T16:01:27.420Z,41
2024-02-19T16:06:47.535Z,40.9
2024-02-19T16:12:06.087Z,40.5
2024-02-19T16:17:24.512Z,40.7
2024-02-19T16:22:42.852Z,41
2024-02-19T16:28:01.248Z,40.7
2024-02-19T16:33:19.424Z,41.7
2024-02-19T16:38:37.734Z,41
2024-02-19T16:43:56.273Z,42
2024-02-19T16:49:15.033Z,41.8
2024-02-19T16:54:33.850Z,41.9
2024-02-19T16:59:52.420Z,41.7
2024-02-19T17:05:11.609Z,41.4
2024-02-19T17:10:30.563Z,41.3
2024-02-19T17:15:49.189Z,41.3
2024-02-19T17:21:07.507Z,41.2
2024-02-19T17:26:26.081Z,41.5
2024-02-19T17:31:50.109Z,41.9
2024-02-19T17:37:09.235Z,41.2
2024-02-19T17:42:27.658Z,41.3
2024-02-19T17:47:46.145Z,42
2024-02-19T17:53:04.499Z,41.3
2024-02-19T17:58:23.295Z,41.9
2024-02-19T18:03:41.949Z,41.3
2024-02-19T18:09:00.351Z,41.7
2024-02-19T18:14:18.472Z,42
2024-02-19T18:19:37.056Z,41.8
2024-02-19T18:24:40.103Z,42.5
2024-02-19T18:29:42.602Z,42.2
2024-02-19T18:35:03.454Z,42.2
2024-02-19T18:40:21.903Z,41.8
2024-02-19T18:45:40.096Z,41.6
2024-02-19T18:50:58.210Z,41.5
2024-02-19T18:56:16.559Z,42.4
2024-02-19T19:01:35.282Z,41.5
2024-02-19T19:06:53.864Z,41.9
2024-02-19T19:12:12.229Z,41.8
2024-02-19T19:17:30.826Z,42.9
2024-02-19T19:22:49.206Z,43.7
2024-02-19T19:28:07.981Z,43.3
2024-02-19T19:33:27.062Z,42.6
2024-02-19T19:38:45.026Z,43.1
2024-02-19T19:44:03.050Z,43.5
2024-02-19T19:49:21.923Z,43.6
2024-02-19T19:54:40.443Z,43.5
2024-02-19T19:59:58.749Z,42.7
2024-02-19T20:05:17.858Z,43
2024-02-19T20:10:36.583Z,42.5
2024-02-19T20:15:55.270Z,42.5
2024-02-19T20:21:13.559Z,43.4
2024-02-19T20:26:31.728Z,43.4
2024-02-19T20:31:49.878Z,43
2024-02-19T20:37:08.056Z,44.2
2024-02-19T20:42:26.374Z,43.9
2024-02-19T20:47:45.859Z,43.5
2024-02-19T20:53:04.062Z,44.1
2024-02-19T20:58:22.769Z,44.2
2024-02-19T21:03:50.542Z,43.1
2024-02-19T21:09:08.645Z,44
2024-02-19T21:14:26.915Z,43.9
2024-02-19T21:19:45.324Z,43.7
2024-02-19T21:25:04.406Z,44
2024-02-19T21:30:22.645Z,44.5
2024-02-19T21:35:41.192Z,44.9
2024-02-19T21:40:59.332Z,44.9
2024-02-19T21:46:17.713Z,44.3
2024-02-19T21:51:35.919Z,44.1
2024-02-19T21:56:54.236Z,44.7
2024-02-19T22:02:12.724Z,44.1
2024-02-19T22:07:31.246Z,43.9
2024-02-19T22:12:49.518Z,44.6
2024-02-19T22:18:08.149Z,43.8
2024-02-19T22:23:26.635Z,44.6
2024-02-19T22:28:44.985Z,44.6
2024-02-19T22:34:03.809Z,43.8
2024-02-19T22:39:22.153Z,43.8
2024-02-19T22:44:40.452Z,44.4
2024-02-19T22:49:58.641Z,43.8
2024-02-19T22:55:16.738Z,43.8
2024-02-19T23:00:35.139Z,44.6
2024-02-19T23:05:53.250Z,43.8
2024-02-19T23:11:11.684Z,43.8
2024-02-19T23:16:30.390Z,44.5
2024-02-19T23:21:48.737Z,44.7
2024-02-19T23:27:06.799Z,44.9
2024-02-19T23:32:25.008Z,44.1
2024-02-19T23:37:43.190Z,44.6
2024-02-19T23:43:01.923Z,44.2
2024-02-19T23:48:20.481Z,44.9
2024-02-19T23:53:38.703Z,44.2
2024-02-19T23:58:57.121Z,43.9
